createdAt,value
2018-08-02T00:00:49.996Z,55.20
2018-08-02T00:03:22.601Z,55.60
2018-08-02T00:08:25.774Z,55.60
2018-08-02T00:10:59.424Z,55.40
2018-08-02T00:13:32.480Z,55.20
2018-08-02T00:16:10.281Z,55.20
2018-08-02T00:18:42.814Z,55.30
2018-08-02T00:21:15.471Z,55.30
2018-08-02T00:23:47.890Z,55.20
2018-08-02T00:28:52.022Z,55.40
2018-08-02T00:31:24.234Z,55.40
2018-08-02T00:33:56.344Z,54.90
2018-08-02T00:38:59.852Z,54.90
2018-08-02T00:41:32.589Z,55.10
2018-08-02T00:44:04.765Z,55.50
2018-08-02T00:46:37.437Z,55.20
2018-08-02T00:51:41.548Z,54.70
2018-08-02T00:54:13.818Z,54.70
2018-08-02T00:56:46.314Z,55.00
2018-08-02T00:59:18.347Z,54.80
2018-08-02T01:01:50.427Z,54.80
2018-08-02T01:04:22.560Z,54.70
2018-08-02T01:06:55.236Z,54.70
2018-08-02T01:09:27.515Z,54.50
2018-08-02T01:11:59.760Z,54.30
2018-08-02T01:14:31.816Z,54.50
2018-08-02T01:17:03.843Z,54.80
2018-08-02T01:19:36.864Z,54.40
2018-08-02T01:22:09.610Z,54.50
2018-08-02T01:24:41.629Z,54.20
2018-08-02T01:27:13.855Z,54.30
2018-08-02T01:29:47.007Z,54.30
2018-08-02T01:32:19.435Z,54.10
2018-08-02T01:34:51.583Z,54.10
2018-08-02T01:37:23.557Z,54.20
2018-08-02T01:39:56.074Z,54.20
2018-08-02T01:42:28.251Z,54.10
2018-08-02T01:45:00.251Z,54.20
2018-08-02T01:47:32.588Z,54.10
2018-08-02T01:50:04.991Z,54.30
2018-08-02T01:52:36.979Z,54.20
2018-08-02T01:55:09.155Z,54.30
2018-08-02T01:57:41.089Z,54.40
2018-08-02T02:00:13.103Z,53.90
2018-08-02T02:02:45.050Z,54.60
2018-08-02T02:05:17.176Z,54.90
2018-08-02T02:07:49.264Z,54.60
2018-08-02T02:10:21.413Z,54.10
2018-08-02T02:12:53.720Z,54.10
2018-08-02T02:15:26.359Z,53.90
2018-08-02T02:17:58.506Z,54.00
2018-08-02T02:20:30.615Z,54.00
2018-08-02T02:23:02.767Z,54.00
2018-08-02T02:25:35.305Z,53.80
2018-08-02T02:28:08.380Z,53.90
2018-08-02T02:30:40.862Z,53.90
2018-08-02T02:33:13.171Z,53.90
2018-08-02T02:35:46.136Z,54.00
2018-08-02T02:38:18.814Z,54.00
2018-08-02T02:40:51.115Z,54.00
2018-08-02T02:43:23.303Z,54.10
2018-08-02T02:45:55.471Z,54.10
2018-08-02T02:48:27.666Z,54.10
2018-08-02T02:50:59.667Z,54.10
2018-08-02T02:53:31.701Z,54.10
2018-08-02T02:56:03.952Z,54.20
2018-08-02T02:58:35.758Z,54.10
2018-08-02T03:01:07.840Z,54.50
2018-08-02T03:03:40.043Z,54.40
2018-08-02T03:06:12.319Z,54.50
2018-08-02T03:08:44.266Z,54.20
2018-08-02T03:11:16.248Z,54.30
2018-08-02T03:13:48.155Z,54.50
2018-08-02T03:16:20.280Z,54.60
2018-08-02T03:18:52.212Z,54.30
2018-08-02T03:21:24.903Z,54.20
2018-08-02T03:23:57.060Z,54.20
2018-08-02T03:26:29.175Z,54.10
2018-08-02T03:29:01.178Z,54.20
2018-08-02T03:31:33.399Z,54.20
2018-08-02T03:34:05.407Z,54.60
2018-08-02T03:36:37.707Z,54.40
2018-08-02T03:39:11.100Z,54.30
2018-08-02T03:41:43.043Z,54.50
2018-08-02T03:44:15.144Z,54.60
2018-08-02T03:46:47.297Z,54.50
2018-08-02T03:49:19.561Z,54.60
2018-08-02T03:51:51.628Z,54.40
2018-08-02T03:54:23.841Z,54.90
2018-08-02T03:56:56.069Z,54.30
2018-08-02T03:59:28.144Z,54.60
2018-08-02T04:02:00.222Z,54.30
2018-08-02T04:04:32.274Z,54.30
2018-08-02T04:07:04.694Z,54.30
2018-08-02T04:09:36.682Z,54.60
2018-08-02T04:12:08.553Z,54.60
2018-08-02T04:14:40.782Z,54.80
2018-08-02T04:17:13.093Z,54.80
2018-08-02T04:19:45.403Z,54.90
2018-08-02T04:22:17.726Z,54.80
2018-08-02T04:24:49.945Z,54.70
2018-08-02T04:27:22.052Z,54.80
2018-08-02T04:29:54.019Z,54.80
2018-08-02T04:32:25.991Z,55.00
2018-08-02T04:34:58.219Z,55.20
2018-08-02T04:40:01.490Z,55.00
2018-08-02T04:42:33.406Z,54.90
2018-08-02T04:45:05.883Z,55.00
2018-08-02T04:47:37.758Z,55.10
2018-08-02T04:50:09.730Z,55.20
2018-08-02T04:52:42.286Z,55.40
2018-08-02T04:55:14.251Z,55.40
2018-08-02T04:57:46.423Z,55.40
2018-08-02T05:00:18.504Z,55.40
2018-08-02T05:02:50.650Z,55.70
2018-08-02T05:05:23.000Z,55.80
2018-08-02T05:07:55.699Z,55.70
2018-08-02T05:10:27.889Z,55.70
2018-08-02T05:12:59.879Z,55.90
2018-08-02T05:15:31.949Z,56.00
2018-08-02T05:18:04.167Z,56.50
2018-08-02T05:20:36.125Z,56.30
2018-08-02T05:23:08.253Z,56.60
2018-08-02T05:25:40.520Z,56.40
2018-08-02T05:28:12.562Z,56.60
2018-08-02T05:30:44.672Z,56.80
2018-08-02T05:33:17.226Z,56.80
2018-08-02T05:35:49.907Z,56.90
2018-08-02T05:40:52.871Z,57.00
2018-08-02T05:43:24.824Z,57.20
2018-08-02T05:45:56.835Z,57.10
2018-08-02T05:48:28.985Z,57.30
2018-08-02T05:51:01.074Z,57.20
2018-08-02T05:53:35.088Z,57.40
2018-08-02T05:56:07.338Z,57.60
2018-08-02T05:58:39.381Z,57.60
2018-08-02T06:01:11.667Z,57.80
2018-08-02T06:03:43.595Z,58.20
2018-08-02T06:06:15.635Z,58.40
2018-08-02T06:08:48.024Z,58.90
2018-08-02T06:11:20.114Z,58.80
2018-08-02T06:13:52.030Z,59.00
2018-08-02T06:16:24.384Z,59.20
2018-08-02T06:18:56.411Z,59.30
2018-08-02T06:21:28.357Z,59.10
2018-08-02T06:24:00.650Z,59.50
2018-08-02T06:26:32.960Z,59.50
2018-08-02T06:29:05.229Z,59.70
2018-08-02T06:31:37.234Z,59.50
2018-08-02T06:34:09.197Z,59.30
2018-08-02T06:36:41.292Z,59.80
2018-08-02T06:39:14.479Z,59.70
2018-08-02T06:41:47.187Z,60.10
2018-08-02T06:44:19.437Z,60.30
2018-08-02T06:46:58.969Z,59.90
2018-08-02T06:49:31.021Z,60.00
2018-08-02T06:52:03.240Z,60.30
2018-08-02T06:54:35.549Z,60.70
2018-08-02T06:57:07.797Z,60.60
2018-08-02T06:59:40.099Z,61.20
2018-08-02T07:02:12.369Z,61.20
2018-08-02T07:04:44.536Z,61.60
2018-08-02T07:07:16.911Z,61.10
2018-08-02T07:09:49.449Z,61.30
2018-08-02T07:12:21.743Z,61.30
2018-08-02T07:14:54.271Z,61.10
2018-08-02T07:17:27.273Z,61.20
2018-08-02T07:19:59.404Z,61.10
2018-08-02T07:22:32.055Z,61.40
2018-08-02T07:25:04.377Z,61.60
2018-08-02T07:27:36.630Z,61.50
2018-08-02T07:30:09.122Z,61.30
2018-08-02T07:32:41.278Z,61.10
2018-08-02T07:35:13.513Z,61.00
2018-08-02T07:37:45.833Z,61.10
2018-08-02T07:40:32.478Z,61.00
2018-08-02T07:43:05.372Z,61.20
2018-08-02T07:48:08.589Z,61.30
2018-08-02T07:50:40.968Z,61.10
2018-08-02T07:53:13.341Z,61.30
2018-08-02T07:55:46.041Z,60.90
2018-08-02T07:58:18.002Z,60.80
2018-08-02T08:00:50.286Z,60.90
2018-08-02T08:03:22.750Z,60.60
2018-08-02T08:05:54.994Z,60.40
2018-08-02T08:08:26.969Z,60.60
2018-08-02T08:10:59.099Z,60.60
2018-08-02T08:13:31.417Z,60.50
2018-08-02T08:16:03.945Z,60.50
2018-08-02T08:18:36.179Z,59.90
2018-08-02T08:21:08.499Z,59.70
2018-08-02T08:23:40.801Z,59.80
2018-08-02T08:26:13.029Z,60.00
2018-08-02T08:28:45.137Z,60.00
2018-08-02T08:31:17.323Z,60.10
2018-08-02T08:33:49.465Z,59.90
2018-08-02T08:36:21.700Z,60.10
2018-08-02T08:38:54.004Z,60.10
2018-08-02T08:41:26.292Z,60.00
2018-08-02T08:43:58.676Z,60.10
2018-08-02T08:46:30.915Z,60.10
2018-08-02T08:49:02.945Z,60.00
2018-08-02T08:51:35.194Z,60.10
2018-08-02T08:54:07.513Z,60.20
2018-08-02T08:56:39.833Z,60.30
2018-08-02T08:59:22.006Z,59.90
2018-08-02T09:01:54.400Z,59.80
2018-08-02T09:04:26.702Z,60.00
2018-08-02T09:06:59.139Z,59.80
2018-08-02T09:09:31.584Z,59.70
2018-08-02T09:12:04.057Z,59.70
2018-08-02T09:14:36.467Z,59.80
2018-08-02T09:17:08.643Z,59.40
2018-08-02T09:19:40.796Z,59.20
2018-08-02T09:22:12.998Z,58.80
2018-08-02T09:24:45.310Z,58.60
2018-08-02T09:27:17.464Z,58.40
2018-08-02T09:29:49.462Z,58.40
2018-08-02T09:32:21.659Z,58.30
2018-08-02T09:34:53.925Z,58.20
2018-08-02T09:37:26.192Z,57.90
2018-08-02T09:39:58.736Z,57.90
2018-08-02T09:42:31.440Z,58.70
2018-08-02T09:45:03.777Z,58.10
2018-08-02T09:47:36.313Z,57.70
2018-08-02T09:50:08.512Z,58.20
2018-08-02T09:52:40.915Z,57.90
2018-08-02T09:55:13.028Z,57.80
2018-08-02T09:57:45.310Z,57.60
2018-08-02T10:00:22.019Z,57.20
2018-08-02T10:02:54.352Z,57.40
2018-08-02T10:05:27.113Z,56.50
2018-08-02T10:07:59.724Z,56.90
2018-08-02T10:10:32.156Z,56.90
2018-08-02T10:13:04.352Z,56.80
2018-08-02T10:18:07.880Z,56.90
2018-08-02T10:23:11.389Z,56.80
2018-08-02T10:25:43.784Z,56.70
2018-08-02T10:28:15.942Z,56.70
2018-08-02T10:30:48.231Z,56.70
2018-08-02T10:33:20.239Z,56.70
2018-08-02T10:35:52.412Z,56.80
2018-08-02T10:38:24.749Z,56.80
2018-08-02T10:40:56.861Z,56.60
2018-08-02T10:43:29.270Z,56.60
2018-08-02T10:46:01.533Z,56.70
2018-08-02T10:48:33.896Z,56.00
2018-08-02T10:51:07.891Z,56.20
2018-08-02T10:53:39.989Z,55.80
2018-08-02T10:56:12.213Z,55.30
2018-08-02T10:58:44.597Z,55.40
2018-08-02T11:01:17.169Z,55.60
2018-08-02T11:03:49.389Z,55.50
2018-08-02T11:06:21.700Z,55.70
2018-08-02T11:08:54.004Z,55.10
2018-08-02T11:11:26.174Z,55.50
2018-08-02T11:14:00.222Z,55.10
2018-08-02T11:16:34.246Z,54.60
2018-08-02T11:19:08.050Z,54.60
2018-08-02T11:21:41.892Z,54.80
2018-08-02T11:24:14.385Z,55.00
2018-08-02T11:26:46.640Z,55.10
2018-08-02T11:29:19.606Z,55.10
2018-08-02T11:31:52.105Z,55.00
2018-08-02T11:34:24.515Z,55.00
2018-08-02T11:36:56.775Z,54.40
2018-08-02T11:39:29.963Z,54.60
2018-08-02T11:42:02.216Z,54.50
2018-08-02T11:44:35.968Z,54.40
2018-08-02T11:47:09.086Z,53.80
2018-08-02T11:49:41.587Z,54.30
2018-08-02T11:52:14.434Z,54.10
2018-08-02T11:54:46.968Z,54.60
2018-08-02T11:57:19.188Z,54.60
2018-08-02T11:59:52.696Z,54.60
2018-08-02T12:02:24.757Z,54.30
2018-08-02T12:07:28.188Z,55.20
2018-08-02T12:10:00.585Z,54.60
2018-08-02T12:12:33.084Z,54.60
2018-08-02T12:15:05.907Z,54.70
2018-08-02T12:17:38.384Z,54.70
2018-08-02T12:20:10.821Z,54.70
2018-08-02T12:22:43.185Z,54.60
2018-08-02T12:25:15.512Z,54.10
2018-08-02T12:27:47.912Z,54.40
2018-08-02T12:30:20.455Z,54.40
2018-08-02T12:35:24.657Z,54.40
2018-08-02T12:37:56.908Z,54.40
2018-08-02T12:40:29.158Z,54.50
2018-08-02T12:43:01.530Z,54.50
2018-08-02T12:45:33.888Z,54.50
2018-08-02T12:48:06.254Z,54.60
2018-08-02T12:50:38.574Z,54.50
2018-08-02T12:53:10.904Z,54.60
2018-08-02T12:55:43.388Z,54.50
2018-08-02T12:58:15.644Z,54.00
2018-08-02T13:00:47.984Z,54.20
2018-08-02T13:03:20.009Z,54.20
2018-08-02T13:05:52.142Z,54.40
2018-08-02T13:08:24.404Z,52.40
2018-08-02T13:10:56.947Z,52.60
2018-08-02T13:13:29.284Z,53.00
2018-08-02T13:16:01.841Z,52.70
2018-08-02T13:18:34.204Z,52.80
2018-08-02T13:21:06.576Z,53.00
2018-08-02T13:23:38.833Z,53.20
2018-08-02T13:28:42.469Z,53.40
2018-08-02T13:31:14.658Z,53.50
2018-08-02T13:33:46.770Z,53.50
2018-08-02T13:36:19.309Z,53.50
2018-08-02T13:38:52.173Z,53.50
2018-08-02T13:41:24.450Z,53.50
2018-08-02T13:43:56.729Z,53.50
2018-08-02T13:46:29.092Z,53.30
2018-08-02T13:49:01.429Z,53.30
2018-08-02T13:51:33.636Z,53.40
2018-08-02T13:54:05.962Z,53.40
2018-08-02T13:56:38.199Z,53.40
2018-08-02T13:59:10.556Z,53.50
2018-08-02T14:01:43.023Z,53.40
2018-08-02T14:04:15.181Z,53.20
2018-08-02T14:06:47.522Z,53.20
2018-08-02T14:11:51.090Z,52.80
2018-08-02T14:14:23.510Z,52.90
2018-08-02T14:16:55.707Z,53.00
2018-08-02T14:19:27.821Z,53.10
2018-08-02T14:21:59.896Z,53.10
2018-08-02T14:24:32.211Z,53.10
2018-08-02T14:27:04.385Z,53.10
2018-08-02T14:29:36.634Z,52.80
2018-08-02T14:32:08.816Z,52.60
2018-08-02T14:34:41.121Z,52.70
2018-08-02T14:37:13.553Z,52.70
2018-08-02T14:39:45.811Z,52.30
2018-08-02T14:42:18.018Z,52.50
2018-08-02T14:44:50.236Z,52.70
2018-08-02T14:47:22.416Z,52.90
2018-08-02T14:49:54.674Z,52.90
2018-08-02T14:52:26.920Z,52.90
2018-08-02T14:54:59.336Z,52.80
2018-08-02T14:57:31.817Z,52.80
2018-08-02T15:00:03.991Z,52.90
2018-08-02T15:02:36.128Z,52.60
2018-08-02T15:05:08.587Z,52.70
2018-08-02T15:07:41.208Z,52.80
2018-08-02T15:10:13.917Z,53.00
2018-08-02T15:12:46.345Z,52.70
2018-08-02T15:15:18.797Z,52.60
2018-08-02T15:17:50.990Z,52.70
2018-08-02T15:20:23.145Z,52.40
2018-08-02T15:22:55.250Z,52.40
2018-08-02T15:25:27.612Z,52.60
2018-08-02T15:27:59.656Z,52.20
2018-08-02T15:30:31.844Z,52.20
2018-08-02T15:33:04.295Z,52.40
2018-08-02T15:35:37.053Z,52.30
2018-08-02T15:38:09.472Z,52.40
2018-08-02T15:40:42.217Z,52.40
2018-08-02T15:43:14.957Z,52.60
2018-08-02T15:45:47.289Z,52.50
2018-08-02T15:48:19.715Z,52.60
2018-08-02T15:50:52.125Z,52.30
2018-08-02T15:55:55.910Z,52.40
2018-08-02T15:58:28.262Z,52.10
2018-08-02T16:01:00.518Z,52.30
2018-08-02T16:03:32.627Z,52.40
2018-08-02T16:06:04.917Z,52.50
2018-08-02T16:08:37.078Z,52.50
2018-08-02T16:13:40.470Z,52.20
2018-08-02T16:16:12.827Z,52.40
2018-08-02T16:18:45.298Z,52.50
2018-08-02T16:21:17.573Z,52.50
2018-08-02T16:23:49.657Z,52.60
2018-08-02T16:26:21.815Z,52.50
2018-08-02T16:28:54.323Z,52.50
2018-08-02T16:31:26.902Z,52.60
2018-08-02T16:33:58.846Z,52.60
2018-08-02T16:36:30.800Z,52.70
2018-08-02T16:39:02.871Z,53.00
2018-08-02T16:41:34.959Z,52.20
2018-08-02T16:44:07.347Z,53.30
2018-08-02T16:46:39.738Z,53.10
2018-08-02T16:49:12.145Z,53.00
2018-08-02T16:51:44.714Z,53.00
2018-08-02T16:54:16.851Z,53.10
2018-08-02T16:56:49.017Z,53.00
2018-08-02T16:59:27.182Z,52.90
2018-08-02T17:02:05.491Z,52.80
2018-08-02T17:07:09.161Z,52.80
2018-08-02T17:09:41.175Z,52.90
2018-08-02T17:12:13.314Z,52.60
2018-08-02T17:14:45.558Z,52.80
2018-08-02T17:17:17.671Z,52.90
2018-08-02T17:19:49.744Z,52.50
2018-08-02T17:22:21.774Z,52.80
2018-08-02T17:24:53.974Z,52.90
2018-08-02T17:27:26.158Z,53.00
2018-08-02T17:29:58.235Z,52.90
2018-08-02T17:32:30.327Z,52.90
2018-08-02T17:35:02.350Z,52.90
2018-08-02T17:37:34.382Z,52.70
2018-08-02T17:40:06.666Z,52.80
2018-08-02T17:45:24.888Z,52.80
2018-08-02T17:47:57.215Z,52.70
2018-08-02T17:50:29.036Z,52.80
2018-08-02T17:53:01.039Z,52.80
2018-08-02T17:55:33.137Z,52.60
2018-08-02T17:58:05.253Z,52.50
2018-08-02T18:00:37.542Z,52.50
2018-08-02T18:03:09.647Z,52.40
2018-08-02T18:05:41.616Z,52.30
2018-08-02T18:08:13.611Z,52.50
2018-08-02T18:10:45.832Z,52.40
2018-08-02T18:13:17.932Z,52.50
2018-08-02T18:15:49.934Z,52.40
2018-08-02T18:18:21.954Z,52.30
2018-08-02T18:20:59.981Z,52.40
2018-08-02T18:23:32.700Z,52.40
2018-08-02T18:26:04.819Z,52.60
2018-08-02T18:28:36.881Z,52.50
2018-08-02T18:31:08.895Z,52.50
2018-08-02T18:33:40.853Z,52.40
2018-08-02T18:36:13.251Z,52.60
2018-08-02T18:38:45.704Z,52.60
2018-08-02T18:41:17.820Z,52.70
2018-08-02T18:44:06.398Z,52.70
2018-08-02T18:46:41.343Z,52.70
2018-08-02T18:49:13.538Z,52.80
2018-08-02T18:54:16.573Z,52.90
2018-08-02T18:56:48.735Z,53.50
2018-08-02T18:59:20.957Z,52.90
2018-08-02T19:01:53.182Z,53.00
2018-08-02T19:04:25.455Z,53.00
2018-08-02T19:06:57.343Z,52.90
2018-08-02T19:09:29.144Z,52.90
2018-08-02T19:12:00.941Z,53.00
2018-08-02T19:14:33.095Z,52.90
2018-08-02T19:17:05.309Z,53.00
2018-08-02T19:19:38.162Z,53.00
2018-08-02T19:22:10.133Z,53.00
2018-08-02T19:24:42.218Z,52.90
2018-08-02T19:27:14.493Z,52.80
2018-08-02T19:29:46.506Z,52.70
2018-08-02T19:32:18.583Z,52.60
2018-08-02T19:34:50.546Z,52.50
2018-08-02T19:37:23.047Z,52.50
2018-08-02T19:39:55.159Z,52.40
2018-08-02T19:42:27.678Z,52.30
2018-08-02T19:45:00.053Z,52.30
2018-08-02T19:47:32.903Z,52.20
2018-08-02T19:50:05.032Z,52.30
2018-08-02T19:52:37.267Z,52.20
2018-08-02T19:55:09.273Z,52.20
2018-08-02T19:57:42.042Z,52.10
2018-08-02T20:02:45.426Z,52.20
2018-08-02T20:05:17.670Z,52.20
2018-08-02T20:07:49.818Z,52.30
2018-08-02T20:10:21.982Z,52.30
2018-08-02T20:12:54.212Z,52.30
2018-08-02T20:15:26.506Z,52.30
2018-08-02T20:17:58.833Z,52.30
2018-08-02T20:20:30.939Z,52.30
2018-08-02T20:25:34.361Z,52.20
2018-08-02T20:28:06.659Z,52.20
2018-08-02T20:30:38.728Z,52.00
2018-08-02T20:33:11.455Z,52.10
2018-08-02T20:35:43.539Z,52.10
2018-08-02T20:38:15.587Z,52.10
2018-08-02T20:40:47.748Z,52.20
2018-08-02T20:43:19.715Z,52.10
2018-08-02T20:45:51.753Z,52.20
2018-08-02T20:48:23.840Z,52.30
2018-08-02T20:50:56.695Z,52.30
2018-08-02T20:53:28.732Z,52.40
2018-08-02T20:56:00.901Z,52.40
2018-08-02T20:58:32.988Z,52.60
2018-08-02T21:01:05.112Z,52.60
2018-08-02T21:03:37.464Z,53.00
2018-08-02T21:06:09.585Z,52.60
2018-08-02T21:08:41.751Z,52.50
2018-08-02T21:11:13.893Z,52.50
2018-08-02T21:13:46.245Z,52.50
2018-08-02T21:16:18.385Z,52.50
2018-08-02T21:18:50.339Z,52.50
2018-08-02T21:21:22.506Z,52.70
2018-08-02T21:23:54.597Z,52.60
2018-08-02T21:26:26.847Z,52.50
2018-08-02T21:28:58.887Z,52.60
2018-08-02T21:31:31.067Z,52.60
2018-08-02T21:34:03.259Z,52.60
2018-08-02T21:36:35.351Z,52.60
2018-08-02T21:39:09.995Z,52.60
2018-08-02T21:41:41.771Z,52.70
2018-08-02T21:44:13.985Z,52.60
2018-08-02T21:46:46.012Z,52.90
2018-08-02T21:49:17.963Z,52.70
2018-08-02T21:51:49.876Z,52.80
2018-08-02T21:54:21.906Z,52.70
2018-08-02T21:56:55.199Z,52.70
2018-08-02T21:59:27.352Z,52.70
2018-08-02T22:04:37.932Z,52.80
2018-08-02T22:07:14.701Z,52.70
2018-08-02T22:09:48.438Z,52.80
2018-08-02T22:12:25.159Z,52.80
2018-08-02T22:15:02.159Z,52.60
2018-08-02T22:17:34.345Z,52.90
2018-08-02T22:20:06.650Z,53.40
2018-08-02T22:22:38.881Z,52.90
2018-08-02T22:25:11.719Z,53.00
2018-08-02T22:27:44.002Z,52.90
2018-08-02T22:30:16.327Z,53.00
2018-08-02T22:32:49.440Z,53.00
2018-08-02T22:35:21.650Z,52.90
2018-08-02T22:37:53.774Z,53.00
2018-08-02T22:40:25.967Z,53.10
2018-08-02T22:42:58.147Z,53.30
2018-08-02T22:45:29.981Z,53.00
2018-08-02T22:48:01.738Z,53.20
2018-08-02T22:50:33.844Z,53.10
2018-08-02T22:53:05.880Z,53.20
2018-08-02T22:55:37.859Z,53.10
2018-08-02T22:58:10.708Z,53.20
2018-08-02T23:00:42.797Z,53.30
2018-08-02T23:03:14.741Z,53.30
2018-08-02T23:05:46.865Z,53.20
2018-08-02T23:08:19.200Z,53.30
2018-08-02T23:10:51.366Z,53.30
2018-08-02T23:13:23.573Z,53.30
2018-08-02T23:15:55.609Z,53.40
2018-08-02T23:18:28.838Z,53.50
2018-08-02T23:21:00.569Z,53.50
2018-08-02T23:23:32.661Z,53.60
2018-08-02T23:26:04.738Z,53.40
2018-08-02T23:28:37.043Z,53.60
2018-08-02T23:31:09.146Z,53.50
2018-08-02T23:33:41.023Z,54.20
2018-08-02T23:36:12.965Z,53.50
2018-08-02T23:38:44.947Z,53.70
2018-08-02T23:41:16.984Z,53.50
2018-08-02T23:43:49.010Z,53.60
2018-08-02T23:46:21.110Z,53.60
2018-08-02T23:48:53.349Z,53.40
2018-08-02T23:51:25.461Z,53.50
2018-08-02T23:53:57.559Z,53.60
2018-08-02T23:56:29.426Z,53.40
2018-08-02T23:59:01.683Z,53.20
